Time;durP1;ratioP1;P1;durP2;ratioP2;P2;SDS_P1;SDS_P2;PMS_P1;PMS_P2;Temp;Humidity;BMP_temperature;BMP_pressure;BME280_temperature;BME280_humidity;BME280_pressure;Samples;Min_cycle;Max_cycle;Signal;HPM_P1;HPM_P2
2021/05/12 00:01:16;;;;;;;;;;;;;;;20.75;43.22;99370.84;4413411;32;20729;-45
2021/05/12 00:03:42;;;;;;;;;;;;;;;20.74;43.17;99375.22;4417361;32;20327;-46
2021/05/12 00:06:08;;;;;;;;;;;;;;;20.73;43.35;99376.13;4408007;32;19959;-49
2021/05/12 00:08:33;;;;;;;;;;;;;;;20.75;43.34;99378.78;4401609;32;20344;-48
2021/05/12 00:10:59;;;;;;;;;;;;;;;20.74;43.08;99380.53;4410515;32;19985;-45
2021/05/12 00:13:25;;;;;;;;;;;;;;;20.74;43.50;99377.88;4416865;32;19991;-51
2021/05/12 00:15:51;;;;;;;;;;;;;;;20.74;43.76;99369.94;4410428;32;19961;-50
2021/05/12 00:18:21;;;;;;;;;;;;;;;20.73;43.69;99373.47;4414317;32;20279;-48
2021/05/12 00:20:47;;;;;;;;;;;;;;;20.73;43.65;99381.41;4417104;32;19969;-46
2021/05/12 00:23:42;;;;;;;;;;;;;;;20.73;43.68;99378.78;4417293;32;19976;-48
2021/05/12 00:26:01;;;;;;;;;;;;;;;20.69;43.40;99374.38;4410238;32;19969;-48
2021/05/12 00:28:27;;;;;;;;;;;;;;;20.74;43.70;99376.97;4401233;32;19997;-50
2021/05/12 00:30:53;;;;;;;;;;;;;;;20.74;43.39;99377.88;4407068;32;19990;-47
2021/05/12 00:33:19;;;;;;;;;;;;;;;20.73;42.97;99380.53;4416642;32;19956;-47
2021/05/12 00:35:45;;;;;;;;;;;;;;;20.72;43.18;99371.72;4413189;32;19990;-48
2021/05/12 00:38:11;;;;;;;;;;;;;;;20.74;43.01;99367.28;4401564;32;19959;-47
2021/05/12 00:40:37;;;;;;;;;;;;;;;20.76;42.96;99370.81;4403339;32;19992;-51
2021/05/12 00:43:03;;;;;;;;;;;;;;;20.75;43.44;99374.34;4416077;32;19991;-46
2021/05/12 00:45:29;;;;;;;;;;;;;;;20.72;43.72;99371.72;4415969;32;20349;-49
2021/05/12 00:47:54;;;;;;;;;;;;;;;20.73;43.51;99364.66;4410621;32;20328;-46
2021/05/12 00:50:21;;;;;;;;;;;;;;;20.70;43.20;99370.84;4416639;32;19946;-47
2021/05/12 00:52:46;;;;;;;;;;;;;;;20.75;43.04;99374.34;4416767;32;19976;-51
2021/05/12 00:55:12;;;;;;;;;;;;;;;20.74;43.74;99371.69;4416472;32;19958;-49
2021/05/12 00:57:38;;;;;;;;;;;;;;;20.70;43.19;99378.78;4403441;32;19950;-47
2021/05/12 01:00:04;;;;;;;;;;;;;;;20.72;43.21;99379.66;4400619;32;20714;-45
2021/05/12 01:02:32;;;;;;;;;;;;;;;20.74;43.05;99377.88;4413968;32;19980;-46
2021/05/12 01:04:58;;;;;;;;;;;;;;;20.72;43.02;99384.94;4417236;32;20013;-48
2021/05/12 01:07:24;;;;;;;;;;;;;;;20.72;42.97;99379.66;4405971;32;19984;-48
2021/05/12 01:09:50;;;;;;;;;;;;;;;20.69;43.39;99381.44;4401435;32;19962;-47
2021/05/12 01:12:16;;;;;;;;;;;;;;;20.73;42.94;99389.34;4410731;32;19954;-48
2021/05/12 01:14:42;;;;;;;;;;;;;;;20.69;43.39;99389.38;4416581;32;19960;-50
2021/05/12 01:17:10;;;;;;;;;;;;;;;20.69;43.40;99384.97;4411462;32;19951;-48
2021/05/12 01:19:36;;;;;;;;;;;;;;;20.72;42.98;99384.94;4415821;32;19950;-50
2021/05/12 01:22:02;;;;;;;;;;;;;;;20.73;42.94;99391.09;4416524;32;20003;-46
2021/05/12 01:24:28;;;;;;;;;;;;;;;20.69;43.19;99384.97;4417197;32;19958;-52
2021/05/12 01:26:54;;;;;;;;;;;;;;;20.71;43.34;99388.47;4415344;32;19978;-46
2021/05/12 01:29:20;;;;;;;;;;;;;;;20.71;43.15;99392.88;4415325;32;20008;-48
2021/05/12 01:31:46;;;;;;;;;;;;;;;20.73;43.02;99381.41;4412189;32;20664;-52
2021/05/12 01:34:12;;;;;;;;;;;;;;;20.67;43.18;99384.06;4401453;32;19954;-49
2021/05/12 01:36:38;;;;;;;;;;;;;;;20.63;43.52;99385.88;4412605;32;19986;-48
2021/05/12 01:39:04;;;;;;;;;;;;;;;20.66;43.48;99387.59;4430735;32;20379;-49
2021/05/12 01:41:30;;;;;;;;;;;;;;;20.70;42.95;99389.38;4430257;32;19950;-47
2021/05/12 01:43:56;;;;;;;;;;;;;;;20.67;43.31;99388.50;4416425;32;20243;-49
2021/05/12 01:46:22;;;;;;;;;;;;;;;20.66;43.60;99392.91;4419283;32;20121;-47
2021/05/12 01:48:48;;;;;;;;;;;;;;;20.68;43.77;99392.91;4420135;32;19962;-51
2021/05/12 01:51:14;;;;;;;;;;;;;;;20.60;43.39;99400.88;4434368;32;19954;-49
2021/05/12 01:53:41;;;;;;;;;;;;;;;20.65;43.64;99399.06;4420471;32;19950;-47
2021/05/12 01:56:07;;;;;;;;;;;;;;;20.62;43.73;99396.44;4419153;32;20014;-48
2021/05/12 01:58:33;;;;;;;;;;;;;;;20.65;43.23;99393.78;4431642;32;20595;-46
2021/05/12 02:00:59;;;;;;;;;;;;;;;20.71;42.94;99396.41;4435418;32;19958;-48
2021/05/12 02:03:25;;;;;;;;;;;;;;;20.68;43.30;99393.78;4422271;32;19954;-49
2021/05/12 02:05:51;;;;;;;;;;;;;;;20.70;42.83;99393.78;4419582;32;19958;-51
2021/05/12 02:08:23;;;;;;;;;;;;;;;20.65;43.33;99399.06;4429100;32;19997;-49
2021/05/12 02:10:48;;;;;;;;;;;;;;;20.64;43.17;99397.31;4433962;32;19950;-48
2021/05/12 02:13:14;;;;;;;;;;;;;;;20.66;43.49;99400.84;4424184;32;20567;-52
2021/05/12 02:15:40;;;;;;;;;;;;;;;20.64;43.20;99397.31;4419515;32;19982;-44
2021/05/12 02:18:06;;;;;;;;;;;;;;;20.68;43.10;99408.78;4427117;32;20439;-51
2021/05/12 02:20:32;;;;;;;;;;;;;;;20.66;44.10;99406.13;4433855;32;19996;-47
2021/05/12 02:22:58;;;;;;;;;;;;;;;20.59;43.44;99401.75;4427841;32;19962;-47
2021/05/12 02:25:24;;;;;;;;;;;;;;;20.64;43.24;99402.59;4418718;32;20567;-47
2021/05/12 02:27:50;;;;;;;;;;;;;;;20.65;43.37;99407.00;4423824;32;20375;-50
2021/05/12 02:30:16;;;;;;;;;;;;;;;20.68;43.32;99409.66;4433017;32;19982;-51
2021/05/12 02:32:41;;;;;;;;;;;;;;;20.60;43.16;99411.47;4430187;32;20261;-47
2021/05/12 02:35:07;;;;;;;;;;;;;;;20.67;42.73;99405.22;4419187;32;20306;-49
2021/05/12 02:37:33;;;;;;;;;;;;;;;20.66;43.63;99405.25;4421960;32;19984;-50
2021/05/12 02:39:59;;;;;;;;;;;;;;;20.60;43.54;99406.16;4433980;32;19977;-47
2021/05/12 02:42:25;;;;;;;;;;;;;;;20.63;43.59;99400.84;4432272;32;19949;-47
2021/05/12 02:44:51;;;;;;;;;;;;;;;20.63;43.03;99401.75;4419293;32;20387;-50
2021/05/12 02:47:17;;;;;;;;;;;;;;;20.62;43.21;99401.75;4418444;32;19960;-48
2021/05/12 02:49:43;;;;;;;;;;;;;;;20.63;43.23;99399.09;4421597;32;19961;-49
2021/05/12 02:52:09;;;;;;;;;;;;;;;20.63;43.15;99395.56;4418824;32;19949;-47
2021/05/12 02:54:35;;;;;;;;;;;;;;;20.61;42.94;99398.19;4422039;32;19938;-49
2021/05/12 02:57:00;;;;;;;;;;;;;;;20.61;43.29;99397.34;4426912;32;19950;-46
2021/05/12 02:59:26;;;;;;;;;;;;;;;20.64;43.21;99399.97;4405006;32;19958;-50
2021/05/12 03:01:52;;;;;;;;;;;;;;;20.59;43.44;99394.69;4403517;32;19955;-48
2021/05/12 03:04:18;;;;;;;;;;;;;;;20.61;43.13;99403.50;4413737;32;19987;-50
2021/05/12 03:06:44;;;;;;;;;;;;;;;20.55;43.32;99397.34;4417718;32;20008;-48
2021/05/12 03:09:10;;;;;;;;;;;;;;;20.56;43.23;99394.72;4416489;32;20311;-48
2021/05/12 03:11:36;;;;;;;;;;;;;;;20.60;43.20;99398.22;4417524;32;19987;-47
2021/05/12 03:14:01;;;;;;;;;;;;;;;20.58;43.37;99403.50;4416936;32;19950;-46
2021/05/12 03:16:29;;;;;;;;;;;;;;;20.58;43.45;99402.66;4417207;32;20004;-49
2021/05/12 03:18:55;;;;;;;;;;;;;;;20.57;43.21;99396.47;4416424;32;19957;-48
2021/05/12 03:21:20;;;;;;;;;;;;;;;20.58;43.13;99405.28;4424904;32;19968;-47
2021/05/12 03:23:48;;;;;;;;;;;;;;;20.59;43.28;99404.41;4415757;32;19984;-45
2021/05/12 03:26:14;;;;;;;;;;;;;;;20.60;43.14;99411.47;4401965;32;20014;-49
2021/05/12 03:28:40;;;;;;;;;;;;;;;20.55;43.23;99415.88;4405611;32;20298;-48
2021/05/12 03:31:05;;;;;;;;;;;;;;;20.59;43.15;99410.56;4416942;32;19950;-49
2021/05/12 03:33:31;;;;;;;;;;;;;;;20.59;43.36;99415.00;4417343;32;20339;-48
2021/05/12 03:35:57;;;;;;;;;;;;;;;20.64;43.17;99418.47;4418382;32;19977;-50
2021/05/12 03:38:23;;;;;;;;;;;;;;;20.65;43.11;99417.59;4417687;32;19965;-49
2021/05/12 03:40:49;;;;;;;;;;;;;;;20.68;43.11;99419.34;4417323;32;20298;-47
2021/05/12 03:43:15;;;;;;;;;;;;;;;20.68;42.98;99422.91;4416468;32;20325;-47
2021/05/12 03:45:41;;;;;;;;;;;;;;;20.63;43.14;99414.97;4403214;32;20014;-46
2021/05/12 03:48:07;;;;;;;;;;;;;;;20.64;42.92;99423.78;4402441;32;19988;-49
2021/05/12 03:50:33;;;;;;;;;;;;;;;20.64;43.04;99424.66;4414183;32;20589;-49
2021/05/12 03:52:59;;;;;;;;;;;;;;;20.57;43.23;99416.75;4417437;32;19950;-45
2021/05/12 03:55:25;;;;;;;;;;;;;;;20.57;43.52;99420.28;4430060;32;19978;-48
2021/05/12 03:57:51;;;;;;;;;;;;;;;20.48;43.71;99429.13;4432207;32;19965;-46
2021/05/12 04:00:17;;;;;;;;;;;;;;;20.53;43.38;99415.00;4432177;32;19958;-51
2021/05/12 04:02:43;;;;;;;;;;;;;;;20.60;43.06;99427.31;4433090;32;20001;-50
2021/05/12 04:05:09;;;;;;;;;;;;;;;20.61;43.29;99423.78;4422399;32;19964;-49
2021/05/12 04:07:35;;;;;;;;;;;;;;;20.58;43.40;99419.38;4416126;32;19957;-50
2021/05/12 04:10:01;;;;;;;;;;;;;;;20.55;43.46;99423.81;4424319;32;19957;-50
2021/05/12 04:12:26;;;;;;;;;;;;;;;20.57;43.20;99437.94;4430725;32;19954;-48
2021/05/12 04:14:52;;;;;;;;;;;;;;;20.59;43.14;99430.84;4424472;32;19950;-48
2021/05/12 04:17:18;;;;;;;;;;;;;;;20.65;43.21;99436.13;4416542;32;19954;-47
2021/05/12 04:19:44;;;;;;;;;;;;;;;20.58;43.09;99439.69;4422478;32;19973;-48
2021/05/12 04:22:10;;;;;;;;;;;;;;;20.52;43.47;99444.97;4431656;32;19961;-49
2021/05/12 04:24:36;;;;;;;;;;;;;;;20.54;43.21;99446.75;4427426;32;19950;-48
2021/05/12 04:27:02;;;;;;;;;;;;;;;20.56;43.33;99450.25;4416491;32;19954;-44
2021/05/12 04:29:28;;;;;;;;;;;;;;;20.58;43.14;99444.97;4419705;32;20007;-50
2021/05/12 04:31:54;;;;;;;;;;;;;;;20.58;42.97;99450.25;4432767;32;19950;-46
2021/05/12 04:34:20;;;;;;;;;;;;;;;20.60;43.02;99443.19;4430640;32;19964;-48
2021/05/12 04:36:46;;;;;;;;;;;;;;;20.55;43.33;99455.53;4418143;32;19945;-50
2021/05/12 04:39:12;;;;;;;;;;;;;;;20.49;43.42;99449.41;4417067;32;19946;-48
2021/05/12 04:41:38;;;;;;;;;;;;;;;20.50;43.16;99448.50;4418074;32;20409;-52
2021/05/12 04:44:04;;;;;;;;;;;;;;;20.56;43.32;99454.66;4417531;32;19985;-45
2021/05/12 04:46:30;;;;;;;;;;;;;;;20.57;43.43;99459.09;4432485;32;19992;-48
2021/05/12 04:48:55;;;;;;;;;;;;;;;20.62;43.16;99452.00;4432369;32;20296;-50
2021/05/12 04:51:21;;;;;;;;;;;;;;;20.59;43.20;99441.44;4419235;32;19947;-47
2021/05/12 04:53:47;;;;;;;;;;;;;;;20.59;43.66;99441.44;4419942;32;20010;-50
2021/05/12 04:56:13;;;;;;;;;;;;;;;20.60;42.84;99443.19;4432902;32;20342;-48
2021/05/12 04:58:39;;;;;;;;;;;;;;;20.61;43.08;99448.47;4432063;32;19946;-45
2021/05/12 05:01:05;;;;;;;;;;;;;;;20.60;43.13;99451.13;4432808;32;20278;-46
2021/05/12 05:03:31;;;;;;;;;;;;;;;20.58;43.13;99451.13;4427977;32;19990;-51
2021/05/12 05:05:58;;;;;;;;;;;;;;;20.62;42.77;99452.00;4426521;32;19938;-49
2021/05/12 05:08:24;;;;;;;;;;;;;;;20.63;43.09;99448.47;4424173;32;19990;-48
2021/05/12 05:10:50;;;;;;;;;;;;;;;20.57;43.53;99448.50;4424122;32;19965;-47
2021/05/12 05:13:16;;;;;;;;;;;;;;;20.45;43.60;99452.94;4424846;32;19945;-47
2021/05/12 05:15:42;;;;;;;;;;;;;;;20.50;43.10;99451.16;4424234;32;20013;-45
2021/05/12 05:18:08;;;;;;;;;;;;;;;20.55;43.38;99455.53;4424435;32;20013;-49
2021/05/12 05:20:34;;;;;;;;;;;;;;;20.59;43.08;99458.16;4423112;32;19963;-46
2021/05/12 05:23:00;;;;;;;;;;;;;;;20.56;43.01;99470.53;4425206;32;19966;-47
2021/05/12 05:25:26;;;;;;;;;;;;;;;20.58;43.11;99471.44;4425279;32;19977;-50
2021/05/12 05:27:52;;;;;;;;;;;;;;;20.59;43.17;99462.59;4425371;32;19989;-48
2021/05/12 05:30:18;;;;;;;;;;;;;;;20.57;43.09;99459.94;4424643;32;20244;-52
2021/05/12 05:32:43;;;;;;;;;;;;;;;20.65;42.90;99457.28;4423856;32;20413;-48
2021/05/12 05:35:09;;;;;;;;;;;;;;;20.62;42.88;99460.84;4422632;32;19954;-49
2021/05/12 05:37:35;;;;;;;;;;;;;;;20.61;42.78;99456.41;4420276;32;19937;-48
2021/05/12 05:40:01;;;;;;;;;;;;;;;20.65;42.86;99459.91;4424186;32;19966;-51
2021/05/12 05:42:27;;;;;;;;;;;;;;;20.64;42.92;99463.44;4424653;32;20333;-47
2021/05/12 05:44:53;;;;;;;;;;;;;;;20.57;42.86;99465.25;4423994;32;19987;-49
2021/05/12 05:47:19;;;;;;;;;;;;;;;20.55;42.94;99466.13;4424668;32;19960;-50
2021/05/12 05:49:45;;;;;;;;;;;;;;;20.59;43.04;99467.87;4425774;32;19949;-49
2021/05/12 05:52:11;;;;;;;;;;;;;;;20.63;42.71;99472.28;4420012;32;19950;-48
2021/05/12 05:54:36;;;;;;;;;;;;;;;20.66;42.69;99482.84;4419843;32;19938;-49
2021/05/12 05:57:06;;;;;;;;;;;;;;;20.65;42.88;99478.44;4426111;32;19965;-48
2021/05/12 05:59:32;;;;;;;;;;;;;;;20.63;42.97;99482.84;4423536;32;19962;-52
2021/05/12 06:01:58;;;;;;;;;;;;;;;20.62;42.93;99479.34;4424688;32;19997;-49
2021/05/12 06:04:24;;;;;;;;;;;;;;;20.69;42.71;99484.59;4423525;32;19957;-48
2021/05/12 06:06:51;;;;;;;;;;;;;;;20.70;42.66;99487.25;4424666;32;19934;-45
2021/05/12 06:09:16;;;;;;;;;;;;;;;20.72;42.65;99489.87;4422474;32;20016;-45
2021/05/12 06:11:42;;;;;;;;;;;;;;;20.70;42.63;99496.94;4424175;32;19959;-48
2021/05/12 06:14:08;;;;;;;;;;;;;;;20.70;42.70;99502.22;4424180;32;19967;-51
2021/05/12 06:16:34;;;;;;;;;;;;;;;20.72;42.71;99501.34;4424239;32;19957;-50
2021/05/12 06:19:00;;;;;;;;;;;;;;;20.67;42.93;99503.13;4425087;32;19957;-45
2021/05/12 06:21:26;;;;;;;;;;;;;;;20.69;42.85;99508.41;4425862;32;19950;-45
2021/05/12 06:23:52;;;;;;;;;;;;;;;20.68;42.86;99510.19;4415575;32;20048;-47
2021/05/12 06:26:19;;;;;;;;;;;;;;;20.68;42.82;99510.19;4416779;32;20018;-45
2021/05/12 06:28:46;;;;;;;;;;;;;;;20.68;42.84;99506.66;4414687;32;19954;-47
2021/05/12 06:31:12;;;;;;;;;;;;;;;20.66;43.07;99517.22;4415727;32;19950;-51
2021/05/12 06:33:44;;;;;;;;;;;;;;;20.66;43.06;99506.66;4425484;32;19960;-50
2021/05/12 06:36:10;;;;;;;;;;;;;;;20.65;43.00;99510.19;4431204;32;19954;-47
2021/05/12 06:38:36;;;;;;;;;;;;;;;20.64;43.12;99505.78;4417415;32;20015;-49
2021/05/12 06:41:02;;;;;;;;;;;;;;;20.64;43.27;99513.72;4429140;32;20002;-50
2021/05/12 06:43:27;;;;;;;;;;;;;;;20.63;43.24;99512.84;4432564;32;19984;-47
2021/05/12 06:45:54;;;;;;;;;;;;;;;20.64;43.24;99508.41;4430799;32;20382;-50
2021/05/12 06:48:20;;;;;;;;;;;;;;;20.68;43.19;99510.19;4418368;32;19945;-49
2021/05/12 06:50:45;;;;;;;;;;;;;;;20.69;43.17;99517.25;4417434;32;20635;-46
2021/05/12 06:53:11;;;;;;;;;;;;;;;20.70;43.15;99513.72;4429547;32;19966;-52
2021/05/12 06:55:37;;;;;;;;;;;;;;;20.71;43.18;99512.81;4419454;32;19958;-50
2021/05/12 06:58:05;;;;;;;;;;;;;;;20.72;43.15;99511.94;4427444;32;20544;-47
2021/05/12 07:00:31;;;;;;;;;;;;;;;20.74;43.13;99504.87;4432577;32;19987;-49
2021/05/12 07:02:57;;;;;;;;;;;;;;;20.75;43.16;99503.97;4422230;32;19950;-48
2021/05/12 07:05:23;;;;;;;;;;;;;;;20.77;43.19;99510.16;4417075;32;20034;-49
2021/05/12 07:07:49;;;;;;;;;;;;;;;20.78;43.12;99508.41;4425567;32;19967;-45
2021/05/12 07:10:15;;;;;;;;;;;;;;;20.79;43.13;99512.81;4431827;32;19946;-47
2021/05/12 07:12:41;;;;;;;;;;;;;;;20.77;43.26;99509.28;4425552;32;19968;-47
2021/05/12 07:15:06;;;;;;;;;;;;;;;20.73;43.42;99508.41;4417644;32;20435;-49
2021/05/12 07:17:32;;;;;;;;;;;;;;;20.72;43.41;99511.94;4422625;32;19961;-48
2021/05/12 07:19:58;;;;;;;;;;;;;;;20.79;43.30;99512.81;4431588;32;19985;-50
2021/05/12 07:22:24;;;;;;;;;;;;;;;20.86;43.32;99516.34;4429301;32;19990;-48
2021/05/12 07:24:50;;;;;;;;;;;;;;;20.79;43.59;99513.66;4417741;32;19965;-47
2021/05/12 07:27:16;;;;;;;;;;;;;;;20.88;43.34;99509.28;4418406;32;20025;-51
2021/05/12 07:29:42;;;;;;;;;;;;;;;20.90;43.34;99510.12;4431852;32;20024;-49
2021/05/12 07:32:08;;;;;;;;;;;;;;;20.87;43.52;99512.81;4431373;32;19957;-47
2021/05/12 07:34:33;;;;;;;;;;;;;;;20.89;43.40;99514.56;4417075;32;19954;-48
2021/05/12 07:36:59;;;;;;;;;;;;;;;20.86;43.73;99503.09;4417363;32;20375;-50
2021/05/12 07:39:29;;;;;;;;;;;;;;;20.90;43.37;99499.56;4430436;32;19954;-50
2021/05/12 07:41:56;;;;;;;;;;;;;;;20.90;43.60;99502.19;4432182;32;19945;-48
2021/05/12 07:44:22;;;;;;;;;;;;;;;20.96;43.35;99499.53;4418218;32;20507;-47
2021/05/12 07:46:50;;;;;;;;;;;;;;;20.96;43.34;99494.25;4417917;32;19989;-48
2021/05/12 07:49:16;;;;;;;;;;;;;;;20.99;43.42;99493.34;4419085;32;20010;-47
2021/05/12 07:51:42;;;;;;;;;;;;;;;20.98;43.44;99492.47;4417854;32;19987;-53
2021/05/12 07:54:07;;;;;;;;;;;;;;;20.98;43.43;99481.88;4417675;32;20361;-49
2021/05/12 07:56:33;;;;;;;;;;;;;;;21.09;43.29;99494.19;4432366;32;19950;-47
2021/05/12 07:58:59;;;;;;;;;;;;;;;21.08;43.34;99492.44;4421575;32;19991;-49
2021/05/12 08:01:35;;;;;;;;;;;;;;;21.09;43.27;99491.56;4425711;32;19976;-47
2021/05/12 08:04:01;;;;;;;;;;;;;;;21.03;43.42;99498.63;4423613;32;19964;-57
2021/05/12 08:06:27;;;;;;;;;;;;;;;20.96;43.09;99504.84;4417381;32;19958;-58
2021/05/12 08:08:52;;;;;;;;;;;;;;;20.57;43.38;99496.13;4425200;32;20319;-57
2021/05/12 08:11:21;;;;;;;;;;;;;;;20.45;43.90;99503.19;4432775;32;19960;-56
2021/05/12 08:13:47;;;;;;;;;;;;;;;19.97;44.66;99512.91;4425323;32;19950;-57
2021/05/12 08:16:13;;;;;;;;;;;;;;;19.83;44.94;99512.87;4427445;32;20642;-55
2021/05/12 08:18:39;;;;;;;;;;;;;;;19.84;44.91;99515.53;4426016;32;19976;-54
2021/05/12 08:21:06;;;;;;;;;;;;;;;19.81;45.21;99515.50;4417551;32;19973;-56
2021/05/12 08:23:31;;;;;;;;;;;;;;;19.75;45.08;99512.87;4421769;32;19988;-55
2021/05/12 08:25:57;;;;;;;;;;;;;;;19.55;45.49;99503.13;4431854;32;19954;-56
2021/05/12 08:28:23;;;;;;;;;;;;;;;19.67;45.40;99511.06;4428420;32;19993;-56
2021/05/12 08:30:49;;;;;;;;;;;;;;;19.73;44.97;99502.28;4421483;32;19979;-56
2021/05/12 08:33:15;;;;;;;;;;;;;;;19.57;45.35;99509.31;4426065;32;19985;-56
2021/05/12 08:35:41;;;;;;;;;;;;;;;19.29;45.36;99517.16;4424335;32;19954;-55
2021/05/12 08:38:07;;;;;;;;;;;;;;;19.59;44.88;99514.59;4432252;32;19942;-56
2021/05/12 08:40:33;;;;;;;;;;;;;;;19.37;45.29;99510.16;4420053;32;19960;-56
2021/05/12 08:42:59;;;;;;;;;;;;;;;19.51;45.04;99514.56;4422852;32;19969;-56
2021/05/12 08:45:25;;;;;;;;;;;;;;;19.34;44.91;99510.16;4418198;32;19968;-57
2021/05/12 08:47:54;;;;;;;;;;;;;;;19.49;44.79;99513.69;4431377;32;20032;-56
2021/05/12 08:50:21;;;;;;;;;;;;;;;19.36;44.69;99513.66;4418543;32;19950;-56
2021/05/12 08:52:47;;;;;;;;;;;;;;;19.54;44.14;99511.94;4425960;32;19964;-57
2021/05/12 08:55:13;;;;;;;;;;;;;;;19.51;45.27;99511.94;4419320;32;19950;-57
2021/05/12 08:57:38;;;;;;;;;;;;;;;19.51;44.83;99506.66;4421188;32;19950;-57
2021/05/12 09:00:04;;;;;;;;;;;;;;;19.42;45.06;99499.59;4426381;32;20316;-56
2021/05/12 09:02:30;;;;;;;;;;;;;;;19.62;44.70;99504.91;4430428;32;19954;-57
2021/05/12 09:04:56;;;;;;;;;;;;;;;19.66;44.60;99497.87;4422731;32;19946;-56
2021/05/12 09:07:22;;;;;;;;;;;;;;;19.35;44.82;99504.00;4416379;32;20045;-57
2021/05/12 09:09:48;;;;;;;;;;;;;;;19.58;44.32;99497.87;4423936;32;19959;-56
2021/05/12 09:12:15;;;;;;;;;;;;;;;19.64;43.80;99503.16;4430894;32;20008;-56
2021/05/12 09:14:40;;;;;;;;;;;;;;;19.62;44.44;99502.28;4425037;32;19950;-57
2021/05/12 09:17:06;;;;;;;;;;;;;;;19.42;44.55;99491.69;4429641;32;19967;-57
2021/05/12 09:19:32;;;;;;;;;;;;;;;19.40;45.15;99505.75;4426905;32;20349;-57
2021/05/12 09:21:58;;;;;;;;;;;;;;;19.24;45.06;99500.44;4428706;32;19965;-57
2021/05/12 09:24:24;;;;;;;;;;;;;;;19.46;44.24;99487.28;4426171;32;19968;-57
2021/05/12 09:26:50;;;;;;;;;;;;;;;19.48;44.27;99493.44;4428463;32;19957;-57
2021/05/12 09:29:16;;;;;;;;;;;;;;;19.37;44.78;99491.66;4428120;32;19946;-57
2021/05/12 09:31:42;;;;;;;;;;;;;;;19.52;44.29;99488.19;4423655;32;20286;-57
2021/05/12 09:34:11;;;;;;;;;;;;;;;19.62;44.24;99489.06;4421392;32;19962;-56
2021/05/12 09:36:37;;;;;;;;;;;;;;;19.60;44.85;99497.87;4432070;32;20596;-57
2021/05/12 09:39:03;;;;;;;;;;;;;;;19.64;44.76;99503.16;4431579;32;20368;-56
2021/05/12 09:41:29;;;;;;;;;;;;;;;19.53;44.69;99494.34;4416664;32;19958;-57
2021/05/12 09:43:55;;;;;;;;;;;;;;;19.61;44.36;99499.63;4417888;32;19962;-56
2021/05/12 09:46:21;;;;;;;;;;;;;;;19.60;44.39;99496.13;4422775;32;19951;-57
2021/05/12 09:48:47;;;;;;;;;;;;;;;19.67;44.01;99497.00;4426840;32;20000;-57
2021/05/12 09:51:13;;;;;;;;;;;;;;;19.46;44.70;99492.56;4423083;32;20377;-55
2021/05/12 09:53:40;;;;;;;;;;;;;;;19.61;44.47;99487.31;4424119;32;19969;-56
2021/05/12 09:56:06;;;;;;;;;;;;;;;19.63;44.74;99488.19;4422224;32;19984;-57
2021/05/12 09:58:32;;;;;;;;;;;;;;;19.50;44.96;99481.13;4429044;32;19962;-57
2021/05/12 10:00:57;;;;;;;;;;;;;;;19.73;44.83;99485.56;4419770;32;19962;-57
2021/05/12 10:03:23;;;;;;;;;;;;;;;19.83;44.68;99482.06;4421970;32;20625;-57
2021/05/12 10:05:49;;;;;;;;;;;;;;;19.93;44.52;99482.97;4423524;32;20328;-57
2021/05/12 10:08:15;;;;;;;;;;;;;;;19.70;45.05;99486.44;4417753;32;19969;-57
2021/05/12 10:10:41;;;;;;;;;;;;;;;19.49;44.79;99482.00;4424612;32;19962;-56
2021/05/12 10:13:07;;;;;;;;;;;;;;;19.72;43.82;99486.44;4432717;32;19954;-57
2021/05/12 10:15:33;;;;;;;;;;;;;;;19.67;44.43;99482.03;4430305;32;19962;-58
2021/05/12 10:17:59;;;;;;;;;;;;;;;19.68;44.50;99488.19;4427281;32;20010;-57
2021/05/12 10:20:25;;;;;;;;;;;;;;;19.69;44.54;99494.34;4427841;32;19954;-57
2021/05/12 10:22:51;;;;;;;;;;;;;;;19.65;44.39;99493.47;4418518;32;19964;-56
2021/05/12 10:25:17;;;;;;;;;;;;;;;19.61;44.12;99487.31;4429189;32;20000;-58
2021/05/12 10:27:43;;;;;;;;;;;;;;;19.61;43.83;99487.31;4424248;32;19987;-57
2021/05/12 10:30:09;;;;;;;;;;;;;;;19.52;44.29;99482.91;4421135;32;19964;-58
2021/05/12 10:32:36;;;;;;;;;;;;;;;19.58;44.05;99481.13;4430270;32;19972;-58
2021/05/12 10:35:02;;;;;;;;;;;;;;;19.71;43.63;99484.69;4429341;32;19985;-59
2021/05/12 10:37:28;;;;;;;;;;;;;;;19.71;43.28;99476.75;4429426;32;19981;-56
2021/05/12 10:39:58;;;;;;;;;;;;;;;19.80;42.92;99466.19;4420793;32;20030;-58
2021/05/12 10:42:24;;;;;;;;;;;;;;;19.49;43.85;99471.44;4428392;32;19958;-58
2021/05/12 10:44:50;;;;;;;;;;;;;;;19.73;43.07;99469.72;4426333;32;19991;-58
2021/05/12 10:47:18;;;;;;;;;;;;;;;19.61;43.39;99476.75;4426727;32;19958;-47
2021/05/12 10:49:44;;;;;;;;;;;;;;;19.87;43.04;99470.59;4432064;32;19999;-49
2021/05/12 10:52:10;;;;;;;;;;;;;;;20.13;42.62;99453.88;4419552;32;19958;-52
2021/05/12 10:54:36;;;;;;;;;;;;;;;20.25;42.39;99454.75;4417136;32;19950;-48
2021/05/12 10:57:02;;;;;;;;;;;;;;;20.40;42.34;99457.34;4427067;32;20399;-50
2021/05/12 10:59:28;;;;;;;;;;;;;;;20.64;41.63;99455.50;4431328;32;19968;-46
2021/05/12 11:01:55;;;;;;;;;;;;;;;20.70;41.46;99447.56;4422924;32;19970;-49
2021/05/12 11:04:22;;;;;;;;;;;;;;;20.50;42.00;99445.88;4428498;32;19953;-52
2021/05/12 11:06:48;;;;;;;;;;;;;;;20.46;42.30;99436.19;4433999;32;19989;-48
2021/05/12 11:09:17;;;;;;;;;;;;;;;20.42;42.33;99439.72;4429291;32;20107;-49
2021/05/12 11:11:43;;;;;;;;;;;;;;;20.46;42.61;99448.53;4420894;32;19957;-48
2021/05/12 11:14:09;;;;;;;;;;;;;;;20.73;41.87;99454.59;4416324;32;19946;-47
2021/05/12 11:16:35;;;;;;;;;;;;;;;20.86;41.58;99439.59;4414203;32;19957;-46
2021/05/12 11:19:01;;;;;;;;;;;;;;;20.88;41.62;99443.13;4410725;32;19961;-45
2021/05/12 11:21:39;;;;;;;;;;;;;;;20.83;41.90;99439.63;4412760;32;19972;-49
2021/05/12 11:24:06;;;;;;;;;;;;;;;20.93;41.62;99441.34;4413950;32;19942;-48
2021/05/12 11:31:56;;;;;;;;;;;;;;;20.77;42.13;99436.06;4395513;32;19958;-49
2021/05/12 11:34:22;;;;;;;;;;;;;;;21.04;41.66;99434.19;4412019;32;20140;-48
2021/05/12 11:36:48;;;;;;;;;;;;;;;20.90;41.99;99429.00;4413709;32;19959;-50
2021/05/12 11:39:14;;;;;;;;;;;;;;;20.92;41.93;99428.97;4403109;32;20024;-48
2021/05/12 11:41:40;;;;;;;;;;;;;;;20.84;42.14;99430.78;4416949;32;19946;-47
2021/05/12 11:44:06;;;;;;;;;;;;;;;20.90;42.03;99428.09;4409037;32;19962;-50
2021/05/12 11:46:32;;;;;;;;;;;;;;;20.82;42.32;99425.50;4411653;32;19953;-46
2021/05/12 11:48:58;;;;;;;;;;;;;;;20.88;42.17;99427.22;4409945;32;20000;-51
2021/05/12 11:51:24;;;;;;;;;;;;;;;20.98;41.92;99420.13;4411124;32;19954;-49
2021/05/12 11:53:50;;;;;;;;;;;;;;;21.05;41.94;99421.84;4411366;32;19949;-45
2021/05/12 11:56:16;;;;;;;;;;;;;;;20.87;42.13;99420.19;4410562;32;19950;-50
2021/05/12 11:58:42;;;;;;;;;;;;;;;20.78;42.35;99416.66;4410451;32;20316;-47
2021/05/12 12:01:08;;;;;;;;;;;;;;;20.82;42.41;99416.69;4409294;32;20420;-51
2021/05/12 12:03:40;;;;;;;;;;;;;;;20.73;42.43;99407.88;4412730;32;19958;-47
2021/05/12 12:06:06;;;;;;;;;;;;;;;20.66;42.72;99405.25;4411497;32;19952;-46
2021/05/12 12:08:31;;;;;;;;;;;;;;;20.70;42.60;99404.34;4410622;32;19942;-49
2021/05/12 12:10:57;;;;;;;;;;;;;;;20.62;42.77;99399.09;4409728;32;19969;-46
2021/05/12 12:13:23;;;;;;;;;;;;;;;20.68;42.78;99392.91;4410524;32;19953;-47
2021/05/12 12:15:49;;;;;;;;;;;;;;;20.70;42.65;99402.59;4410308;32;19949;-46
2021/05/12 12:18:15;;;;;;;;;;;;;;;20.62;42.85;99402.62;4416417;32;19965;-46
2021/05/12 12:20:42;;;;;;;;;;;;;;;20.62;42.86;99396.44;4416865;32;19954;-58
2021/05/12 12:23:08;;;;;;;;;;;;;;;20.76;42.78;99391.13;4416231;32;19954;-57
2021/05/12 12:25:47;;;;;;;;;;;;;;;20.99;40.76;99393.66;4415706;32;19981;-57
2021/05/12 12:28:12;;;;;;;;;;;;;;;20.86;40.93;99387.53;4414782;32;19992;-58
2021/05/12 12:30:38;;;;;;;;;;;;;;;20.63;41.93;99384.97;4419613;32;19958;-56
2021/05/12 12:33:04;;;;;;;;;;;;;;;20.86;41.02;99386.69;4409034;32;19986;-54
2021/05/12 12:35:30;;;;;;;;;;;;;;;20.92;40.42;99384.88;4408729;32;19972;-58
2021/05/12 12:37:56;;;;;;;;;;;;;;;20.75;40.67;99384.94;4413681;32;19970;-58
2021/05/12 12:40:23;;;;;;;;;;;;;;;20.85;40.20;99375.19;4400616;32;19946;-57
2021/05/12 12:42:49;;;;;;;;;;;;;;;20.25;41.15;99378.06;4405276;32;19946;-58
2021/05/12 12:45:15;;;;;;;;;;;;;;;20.69;40.85;99374.38;4415571;32;19980;-57
2021/05/12 12:47:41;;;;;;;;;;;;;;;20.63;39.33;99377.03;4414921;32;19950;-57